createdAt,value
2022-10-05T00:00:51.838Z,10.20
2022-10-05T00:03:27.640Z,10.10
2022-10-05T00:05:54.594Z,10.10
2022-10-05T00:08:38.161Z,10.10
2022-10-05T00:11:11.672Z,10.10
2022-10-05T00:13:40.990Z,10.00
2022-10-05T00:16:58.026Z,10.00
2022-10-05T00:19:56.918Z,10.00
2022-10-05T00:25:54.046Z,9.90
2022-10-05T00:28:58.334Z,9.90
2022-10-05T00:32:45.568Z,9.90
2022-10-05T00:36:00.683Z,9.80
2022-10-05T00:39:01.001Z,9.80
2022-10-05T00:49:02.563Z,9.80
2022-10-05T01:03:26.844Z,9.60
2022-10-05T01:15:36.669Z,9.40
2022-10-05T01:18:56.332Z,9.40
2022-10-05T01:21:46.250Z,9.40
2022-10-05T01:24:48.540Z,9.30
2022-10-05T01:27:46.542Z,9.40
2022-10-05T01:30:23.012Z,9.30
2022-10-05T01:37:11.780Z,9.30
2022-10-05T01:40:29.271Z,9.30
2022-10-05T01:43:29.877Z,9.30
2022-10-05T01:46:19.439Z,9.30
2022-10-05T01:49:22.428Z,9.30
2022-10-05T01:51:57.132Z,9.30
2022-10-05T01:54:50.127Z,9.30
2022-10-05T01:57:27.618Z,9.30
2022-10-05T02:00:13.749Z,9.30
2022-10-05T02:02:48.893Z,9.30
2022-10-05T02:05:28.966Z,9.20
2022-10-05T02:08:27.212Z,9.30
2022-10-05T02:11:31.396Z,9.20
2022-10-05T02:14:37.089Z,9.20
2022-10-05T02:17:12.158Z,9.20
2022-10-05T02:19:44.545Z,9.10
2022-10-05T02:22:39.816Z,9.10
2022-10-05T02:25:35.003Z,9.00
2022-10-05T02:28:27.495Z,9.00
2022-10-05T02:31:04.788Z,8.90
2022-10-05T02:33:36.674Z,8.90
2022-10-05T02:39:54.359Z,8.70
2022-10-05T02:42:32.675Z,8.70
2022-10-05T02:45:23.977Z,8.60
2022-10-05T02:48:34.475Z,8.50
2022-10-05T02:51:33.784Z,8.40
2022-10-05T02:54:21.879Z,8.40
2022-10-05T02:57:12.926Z,8.30
2022-10-05T02:59:52.448Z,8.30
2022-10-05T03:02:29.490Z,8.20
2022-10-05T03:05:32.067Z,8.20
2022-10-05T03:08:27.474Z,8.10
2022-10-05T03:10:54.050Z,8.10
2022-10-05T03:13:38.153Z,8.10
2022-10-05T03:16:16.270Z,8.10
2022-10-05T03:18:55.061Z,8.10
2022-10-05T03:21:48.708Z,8.00
2022-10-05T03:24:43.705Z,8.00
2022-10-05T03:27:16.692Z,8.00
2022-10-05T03:30:07.808Z,7.90
2022-10-05T03:32:51.834Z,7.90
2022-10-05T03:35:43.687Z,7.90
2022-10-05T03:38:41.249Z,7.90
2022-10-05T03:41:16.804Z,7.80
2022-10-05T03:43:59.075Z,7.80
2022-10-05T03:47:11.605Z,7.80
2022-10-05T03:50:02.788Z,7.80
2022-10-05T03:52:39.544Z,7.70
2022-10-05T03:55:24.384Z,7.80
2022-10-05T03:57:54.581Z,7.80
2022-10-05T04:00:28.738Z,7.80
2022-10-05T04:03:11.126Z,7.80
2022-10-05T04:06:12.642Z,7.80
2022-10-05T04:09:07.110Z,7.80
2022-10-05T04:12:04.830Z,7.80
2022-10-05T04:14:37.871Z,7.90
2022-10-05T04:17:17.831Z,8.00
2022-10-05T04:20:01.658Z,8.10
2022-10-05T04:22:31.699Z,8.30
2022-10-05T04:25:03.754Z,8.40
2022-10-05T04:27:41.718Z,8.50
2022-10-05T04:30:19.068Z,8.50
2022-10-05T04:32:59.829Z,8.60
2022-10-05T04:35:26.568Z,8.60
2022-10-05T04:38:21.205Z,8.70
2022-10-05T04:41:25.181Z,8.80
2022-10-05T04:44:06.841Z,8.80
2022-10-05T04:47:11.675Z,8.80
2022-10-05T04:49:49.521Z,8.80
2022-10-05T04:52:43.521Z,8.80
2022-10-05T04:55:35.782Z,8.80
2022-10-05T04:58:24.739Z,8.80
2022-10-05T05:00:58.986Z,8.80
2022-10-05T05:03:35.343Z,8.80
2022-10-05T05:06:39.824Z,8.90
2022-10-05T05:09:12.790Z,8.80
2022-10-05T05:11:52.995Z,8.90
2022-10-05T05:15:22.828Z,8.90
2022-10-05T05:18:06.487Z,8.90
2022-10-05T05:20:59.638Z,8.90
2022-10-05T05:23:51.353Z,8.90
2022-10-05T05:26:48.626Z,9.00
2022-10-05T05:29:30.076Z,9.00
2022-10-05T05:32:13.157Z,9.00
2022-10-05T05:35:04.268Z,9.00
2022-10-05T05:37:36.261Z,9.00
2022-10-05T05:40:27.961Z,9.10
2022-10-05T05:43:23.761Z,9.10
2022-10-05T05:46:17.744Z,9.10
2022-10-05T05:48:47.845Z,9.20
2022-10-05T05:51:23.909Z,9.20
2022-10-05T05:53:57.375Z,9.20
2022-10-05T05:56:39.461Z,9.30
2022-10-05T05:59:20.108Z,9.30
2022-10-05T06:01:57.430Z,9.40
2022-10-05T06:04:47.146Z,9.40
2022-10-05T06:07:30.389Z,9.50
2022-10-05T06:10:26.551Z,9.50
2022-10-05T06:13:01.498Z,9.50
2022-10-05T06:16:24.685Z,9.60
2022-10-05T06:18:58.217Z,9.70
2022-10-05T06:21:41.970Z,9.80
2022-10-05T06:24:34.769Z,9.90
2022-10-05T06:27:27.544Z,9.80
2022-10-05T06:30:21.555Z,9.90
2022-10-05T06:33:25.923Z,10.00
2022-10-05T06:36:37.543Z,10.00
2022-10-05T06:39:41.851Z,10.10
2022-10-05T06:42:25.792Z,10.20
2022-10-05T06:45:11.841Z,10.20
2022-10-05T06:47:51.609Z,10.40
2022-10-05T06:50:27.602Z,10.50
2022-10-05T06:53:26.198Z,10.60
2022-10-05T06:56:04.655Z,10.60
2022-10-05T06:58:46.392Z,10.70
2022-10-05T07:01:21.187Z,10.80
2022-10-05T07:04:22.853Z,10.80
2022-10-05T07:07:00.174Z,11.00
2022-10-05T07:09:29.655Z,11.10
2022-10-05T07:12:31.768Z,11.20
2022-10-05T07:15:31.110Z,11.20
2022-10-05T07:18:09.791Z,11.30
2022-10-05T07:21:05.669Z,11.30
2022-10-05T07:23:47.644Z,11.50
2022-10-05T07:26:33.213Z,11.60
2022-10-05T07:29:40.458Z,11.70
2022-10-05T07:32:07.291Z,11.90
2022-10-05T07:35:34.331Z,12.00
2022-10-05T07:38:09.562Z,12.00
2022-10-05T07:40:59.699Z,12.10
2022-10-05T07:44:02.832Z,12.20
2022-10-05T07:46:34.007Z,12.20
2022-10-05T07:49:40.414Z,12.30
2022-10-05T07:52:23.373Z,12.30
2022-10-05T07:55:22.351Z,12.30
2022-10-05T07:57:58.818Z,12.40
2022-10-05T08:00:43.138Z,12.50
2022-10-05T08:03:57.780Z,12.60
2022-10-05T08:06:49.171Z,12.90
2022-10-05T08:09:58.815Z,13.10
2022-10-05T08:12:40.161Z,13.20
2022-10-05T08:15:20.733Z,13.20
2022-10-05T08:18:04.369Z,13.40
2022-10-05T08:20:49.727Z,13.70
2022-10-05T08:23:33.745Z,14.00
2022-10-05T08:26:12.384Z,14.30
2022-10-05T08:28:47.145Z,14.50
2022-10-05T08:31:20.949Z,14.60
2022-10-05T08:34:20.123Z,14.80
2022-10-05T08:37:00.591Z,15.10
2022-10-05T08:39:35.691Z,15.00
2022-10-05T08:42:29.726Z,14.90
2022-10-05T08:45:06.239Z,14.70
2022-10-05T08:48:10.428Z,14.70
2022-10-05T08:51:22.680Z,14.70
2022-10-05T08:54:07.421Z,14.70
2022-10-05T08:56:59.789Z,14.70
2022-10-05T09:00:02.946Z,14.70
2022-10-05T09:02:41.714Z,14.80
2022-10-05T09:05:25.401Z,14.90
2022-10-05T09:08:31.068Z,14.80
2022-10-05T09:11:19.666Z,14.90
2022-10-05T09:14:11.248Z,15.00
2022-10-05T09:17:11.766Z,15.00
2022-10-05T09:19:59.060Z,15.10
2022-10-05T09:22:30.152Z,15.10
2022-10-05T09:25:33.980Z,15.10
2022-10-05T09:28:37.725Z,15.30
2022-10-05T09:31:23.906Z,15.30
2022-10-05T09:34:36.640Z,15.40
2022-10-05T09:37:19.843Z,15.50
2022-10-05T09:40:22.277Z,15.60
2022-10-05T09:43:17.179Z,15.70
2022-10-05T09:45:54.059Z,15.70
2022-10-05T09:48:52.693Z,15.70
2022-10-05T09:51:51.119Z,15.80
2022-10-05T09:54:45.679Z,15.80
2022-10-05T09:57:53.360Z,15.80
2022-10-05T10:00:28.883Z,15.90
2022-10-05T10:03:23.137Z,15.90
2022-10-05T10:06:13.026Z,16.00
2022-10-05T10:08:59.165Z,16.00
2022-10-05T10:11:49.667Z,16.10
2022-10-05T10:14:20.269Z,16.10
2022-10-05T10:17:11.642Z,16.20
2022-10-05T10:20:05.731Z,16.20
2022-10-05T10:23:09.742Z,16.30
2022-10-05T10:26:01.045Z,16.50
2022-10-05T10:28:30.617Z,16.50
2022-10-05T10:31:12.820Z,16.70
2022-10-05T10:34:09.739Z,16.80
2022-10-05T10:37:06.209Z,16.80
2022-10-05T10:39:42.030Z,16.80
2022-10-05T10:42:39.371Z,16.90
2022-10-05T10:45:08.829Z,17.00
2022-10-05T10:47:40.259Z,17.10
2022-10-05T10:50:09.733Z,17.10
2022-10-05T10:53:26.698Z,17.10
2022-10-05T10:56:30.971Z,17.20
2022-10-05T10:59:31.955Z,17.30
2022-10-05T11:02:37.519Z,17.30
2022-10-05T11:05:22.903Z,17.40
2022-10-05T11:08:00.986Z,17.40
2022-10-05T11:10:54.636Z,17.60
2022-10-05T11:13:43.798Z,17.70
2022-10-05T11:16:26.186Z,17.90
2022-10-05T11:19:15.283Z,17.90
2022-10-05T11:22:28.462Z,17.90
2022-10-05T11:25:45.765Z,18.00
2022-10-05T11:28:24.289Z,18.20
2022-10-05T11:31:25.886Z,18.90
2022-10-05T11:34:19.854Z,19.20
2022-10-05T11:37:08.125Z,19.20
2022-10-05T11:39:44.110Z,19.20
2022-10-05T11:42:16.061Z,19.40
2022-10-05T11:45:11.759Z,20.10
2022-10-05T11:48:17.569Z,20.70
2022-10-05T11:51:24.030Z,21.50
2022-10-05T11:54:01.250Z,21.90
2022-10-05T11:56:44.455Z,22.00
2022-10-05T11:59:16.618Z,21.90
2022-10-05T12:02:01.221Z,21.50
2022-10-05T12:04:45.500Z,21.20
2022-10-05T12:07:12.207Z,20.90
2022-10-05T12:10:21.599Z,20.60
2022-10-05T12:13:19.456Z,20.50
2022-10-05T12:16:05.723Z,21.00
2022-10-05T12:18:39.128Z,21.00
2022-10-05T12:21:17.391Z,20.90
2022-10-05T12:23:55.362Z,20.80
2022-10-05T12:26:31.785Z,20.90
2022-10-05T12:29:24.741Z,20.80
2022-10-05T12:32:11.549Z,20.60
2022-10-05T12:35:14.333Z,20.40
2022-10-05T12:38:19.362Z,20.20
2022-10-05T12:40:51.586Z,20.00
2022-10-05T12:43:49.855Z,19.90
2022-10-05T12:46:34.702Z,19.90
2022-10-05T12:49:25.841Z,20.00
2022-10-05T12:51:52.508Z,20.00
2022-10-05T12:55:03.164Z,20.40
2022-10-05T12:57:57.668Z,20.90
2022-10-05T13:00:24.462Z,21.60
2022-10-05T13:03:00.497Z,21.90
2022-10-05T13:05:49.330Z,22.20
2022-10-05T13:08:32.396Z,22.70
2022-10-05T13:11:42.771Z,22.90
2022-10-05T13:14:36.923Z,23.10
2022-10-05T13:17:34.031Z,22.80
2022-10-05T13:20:23.328Z,22.80
2022-10-05T13:23:31.293Z,22.70
2022-10-05T13:26:20.871Z,22.70
2022-10-05T13:29:19.731Z,22.80
2022-10-05T13:31:50.748Z,22.80
2022-10-05T13:34:29.564Z,22.60
2022-10-05T13:37:06.617Z,22.50
2022-10-05T13:39:50.207Z,22.00
2022-10-05T13:42:39.977Z,21.70
2022-10-05T13:45:19.085Z,21.30
2022-10-05T13:47:51.733Z,21.30
2022-10-05T13:50:33.624Z,21.20
2022-10-05T13:53:23.818Z,21.00
2022-10-05T13:56:00.794Z,20.80
2022-10-05T13:58:45.453Z,20.80
2022-10-05T14:01:32.341Z,21.10
2022-10-05T14:04:17.644Z,21.30
2022-10-05T14:06:45.027Z,21.60
2022-10-05T14:09:34.230Z,21.70
2022-10-05T14:12:03.729Z,21.80
2022-10-05T14:14:43.436Z,21.80
2022-10-05T14:17:39.603Z,22.00
2022-10-05T14:20:26.238Z,22.10
2022-10-05T14:23:11.010Z,21.90
2022-10-05T14:25:55.334Z,22.00
2022-10-05T14:28:33.632Z,22.00
2022-10-05T14:31:02.664Z,22.00
2022-10-05T14:33:33.342Z,21.90
2022-10-05T14:36:00.451Z,22.00
2022-10-05T14:38:50.841Z,21.90
2022-10-05T14:41:20.600Z,21.70
2022-10-05T14:43:56.774Z,21.60
2022-10-05T14:46:27.878Z,21.50
2022-10-05T14:49:17.199Z,21.40
2022-10-05T14:51:43.923Z,21.30
2022-10-05T14:54:41.377Z,21.20
2022-10-05T14:57:25.105Z,21.10
2022-10-05T15:00:03.967Z,20.90
2022-10-05T15:02:31.670Z,21.00
2022-10-05T15:05:05.263Z,20.80
2022-10-05T15:07:38.457Z,20.60
2022-10-05T15:10:39.071Z,20.40
2022-10-05T15:13:15.068Z,20.30
2022-10-05T15:16:00.480Z,20.20
2022-10-05T15:19:07.265Z,20.00
2022-10-05T15:22:01.052Z,19.90
2022-10-05T15:24:42.694Z,19.80
2022-10-05T15:27:32.670Z,19.80
2022-10-05T15:30:14.188Z,19.60
2022-10-05T15:33:11.112Z,19.60
2022-10-05T15:35:54.409Z,19.50
2022-10-05T15:38:25.850Z,19.30
2022-10-05T15:41:17.392Z,19.20
2022-10-05T15:43:46.941Z,19.20
2022-10-05T15:46:34.180Z,19.00
2022-10-05T15:49:21.334Z,18.90
2022-10-05T15:52:09.370Z,18.80
2022-10-05T15:54:57.669Z,18.70
2022-10-05T15:57:53.262Z,18.60
2022-10-05T16:00:22.076Z,18.50
2022-10-05T16:02:57.939Z,18.40
2022-10-05T16:05:52.046Z,18.30
2022-10-05T16:08:55.532Z,18.20
2022-10-05T16:11:27.831Z,18.20
2022-10-05T16:14:02.432Z,18.10
2022-10-05T16:16:48.224Z,18.00
2022-10-05T16:19:31.995Z,17.90
2022-10-05T16:22:11.033Z,17.90
2022-10-05T16:24:48.634Z,17.80
2022-10-05T16:27:40.376Z,17.70
2022-10-05T16:30:13.483Z,17.70
2022-10-05T16:33:05.564Z,17.60
2022-10-05T16:35:55.945Z,17.50
2022-10-05T16:38:47.582Z,17.40
2022-10-05T16:41:41.134Z,17.40
2022-10-05T16:44:22.419Z,17.20
2022-10-05T16:47:08.561Z,17.10
2022-10-05T16:49:50.270Z,17.10
2022-10-05T16:52:21.307Z,17.10
2022-10-05T16:55:02.964Z,17.10
2022-10-05T16:57:38.900Z,17.10
2022-10-05T17:00:15.622Z,17.00
2022-10-05T17:03:11.167Z,16.80
2022-10-05T17:05:44.251Z,16.70
2022-10-05T17:08:45.499Z,16.60
2022-10-05T17:11:33.874Z,16.50
2022-10-05T17:14:00.689Z,16.40
2022-10-05T17:17:00.045Z,16.30
2022-10-05T17:19:40.597Z,16.20
2022-10-05T17:22:11.673Z,16.10
2022-10-05T17:24:56.222Z,16.00
2022-10-05T17:27:51.163Z,16.00
2022-10-05T17:30:22.715Z,16.00
2022-10-05T17:33:03.298Z,15.90
2022-10-05T17:35:58.124Z,15.80
2022-10-05T17:38:30.932Z,15.70
2022-10-05T17:41:00.471Z,15.60
2022-10-05T17:43:30.679Z,15.40
2022-10-05T17:46:00.671Z,15.30
2022-10-05T17:48:49.249Z,15.20
2022-10-05T17:51:48.299Z,15.10
2022-10-05T17:54:48.186Z,14.90
2022-10-05T17:57:19.626Z,14.80
2022-10-05T17:59:53.430Z,14.70
2022-10-05T18:02:22.052Z,14.60
2022-10-05T18:05:21.952Z,14.40
2022-10-05T18:08:11.585Z,14.20
2022-10-05T18:10:58.611Z,14.10
2022-10-05T18:13:38.228Z,14.00
2022-10-05T18:16:07.480Z,14.00
2022-10-05T18:18:56.281Z,13.90
2022-10-05T18:21:33.008Z,13.80
2022-10-05T18:23:59.585Z,13.70
2022-10-05T18:26:59.363Z,13.60
2022-10-05T18:29:58.660Z,13.60
2022-10-05T18:32:42.229Z,13.50
2022-10-05T18:35:37.984Z,13.40
2022-10-05T18:38:13.948Z,13.30
2022-10-05T18:41:05.218Z,13.20
2022-10-05T18:43:45.998Z,13.10
2022-10-05T18:46:22.605Z,12.90
2022-10-05T18:49:20.406Z,12.90
2022-10-05T18:51:55.932Z,12.80
2022-10-05T18:54:54.087Z,12.70
2022-10-05T18:57:35.505Z,12.70
2022-10-05T19:00:16.902Z,12.70
2022-10-05T19:02:51.737Z,12.70
2022-10-05T19:05:47.355Z,12.80
2022-10-05T19:08:33.638Z,12.80
2022-10-05T19:11:17.941Z,12.80
2022-10-05T19:14:09.429Z,13.00
2022-10-05T19:16:59.020Z,13.30
2022-10-05T19:19:39.948Z,13.50
2022-10-05T19:22:25.089Z,13.70
2022-10-05T19:25:24.710Z,13.80
2022-10-05T19:27:58.591Z,14.00
2022-10-05T19:30:33.281Z,14.10
2022-10-05T19:33:31.141Z,14.20
2022-10-05T19:36:39.951Z,14.20
2022-10-05T19:39:38.206Z,14.30
2022-10-05T19:42:44.561Z,14.30
2022-10-05T19:45:26.288Z,14.30
2022-10-05T19:48:32.411Z,14.30
2022-10-05T19:51:01.341Z,14.30
2022-10-05T19:53:32.480Z,14.30
2022-10-05T19:56:25.359Z,14.30
2022-10-05T19:59:00.961Z,14.30
2022-10-05T20:01:36.604Z,14.30
2022-10-05T20:04:05.038Z,14.30
2022-10-05T20:06:31.649Z,14.20
2022-10-05T20:09:00.174Z,14.20
2022-10-05T20:11:28.242Z,14.30
2022-10-05T20:13:59.729Z,14.20
2022-10-05T20:16:45.185Z,14.20
2022-10-05T20:19:49.606Z,14.20
2022-10-05T20:22:25.168Z,14.30
2022-10-05T20:24:54.642Z,14.20
2022-10-05T20:27:39.908Z,14.20
2022-10-05T20:30:09.298Z,14.20
2022-10-05T20:32:38.505Z,14.10
2022-10-05T20:35:06.914Z,14.10
2022-10-05T20:37:33.701Z,14.00
2022-10-05T20:40:00.497Z,14.00
2022-10-05T20:42:27.205Z,14.00
2022-10-05T20:44:56.890Z,14.00
2022-10-05T20:47:25.203Z,14.00
2022-10-05T20:49:54.492Z,13.90
2022-10-05T20:52:23.102Z,13.90
2022-10-05T20:54:53.966Z,13.90
2022-10-05T20:57:21.271Z,13.90
2022-10-05T20:59:48.053Z,13.80
2022-10-05T21:02:14.664Z,13.90
2022-10-05T21:04:46.575Z,13.90
2022-10-05T21:07:18.259Z,14.00
2022-10-05T21:09:46.493Z,14.00
2022-10-05T21:12:16.490Z,14.10
2022-10-05T21:14:43.450Z,14.10
2022-10-05T21:17:11.899Z,14.40
2022-10-05T21:19:39.357Z,14.40
2022-10-05T21:22:07.861Z,14.60
2022-10-05T21:24:39.380Z,14.70
2022-10-05T21:27:06.370Z,14.70
2022-10-05T21:29:34.438Z,14.80
2022-10-05T21:32:01.381Z,14.90
2022-10-05T21:34:28.671Z,15.00
2022-10-05T21:36:55.337Z,15.10
2022-10-05T21:39:21.939Z,15.10
2022-10-05T21:41:49.793Z,15.10
2022-10-05T21:44:16.789Z,15.10
2022-10-05T21:46:43.638Z,15.20
2022-10-05T21:49:19.643Z,15.20
2022-10-05T21:51:47.198Z,15.20
2022-10-05T21:54:20.630Z,15.30
2022-10-05T21:56:51.046Z,15.30
2022-10-05T21:59:21.304Z,15.30
2022-10-05T22:01:47.901Z,15.30
2022-10-05T22:04:17.550Z,15.40
2022-10-05T22:06:44.180Z,15.50
2022-10-05T22:09:10.930Z,15.50
2022-10-05T22:11:37.750Z,15.50
2022-10-05T22:14:04.778Z,15.50
2022-10-05T22:16:34.233Z,15.50
2022-10-05T22:19:05.879Z,15.50
2022-10-05T22:21:37.955Z,15.50
2022-10-05T22:24:04.900Z,15.70
2022-10-05T22:26:31.710Z,15.70
2022-10-05T22:28:58.660Z,15.70
2022-10-05T22:31:25.372Z,15.60
2022-10-05T22:33:52.189Z,15.70
2022-10-05T22:36:19.325Z,15.70
2022-10-05T22:38:47.562Z,15.70
2022-10-05T22:41:15.276Z,15.70
2022-10-05T22:43:42.043Z,15.80
2022-10-05T22:46:10.820Z,15.80
2022-10-05T22:48:37.702Z,15.80
2022-10-05T22:51:04.908Z,15.70
2022-10-05T22:53:31.558Z,15.80
2022-10-05T22:56:03.226Z,15.70
2022-10-05T22:58:30.127Z,15.80
2022-10-05T23:01:01.959Z,15.80
2022-10-05T23:03:28.636Z,15.80
2022-10-05T23:06:00.615Z,15.80
2022-10-05T23:08:27.704Z,15.90
2022-10-05T23:10:54.609Z,15.90
2022-10-05T23:13:22.360Z,15.80
2022-10-05T23:15:49.046Z,15.90
2022-10-05T23:18:16.631Z,15.80
2022-10-05T23:20:43.300Z,15.70
2022-10-05T23:23:10.256Z,15.70
2022-10-05T23:25:36.862Z,15.70
2022-10-05T23:28:03.576Z,15.70
2022-10-05T23:30:30.240Z,15.60
2022-10-05T23:32:56.857Z,15.60
2022-10-05T23:35:23.518Z,15.50
2022-10-05T23:37:50.148Z,15.60
2022-10-05T23:40:16.833Z,15.60
2022-10-05T23:42:43.468Z,15.70
2022-10-05T23:45:11.568Z,15.60
2022-10-05T23:47:38.847Z,15.60
2022-10-05T23:50:07.087Z,15.60
2022-10-05T23:52:35.109Z,15.60
2022-10-05T23:55:03.453Z,15.70
2022-10-05T23:57:30.238Z,15.70
2022-10-05T23:59:56.877Z,15.70
